sensor_id;sensor_type;location;lat;lon;timestamp;pressure;altitude;pressure_sealevel;temperature;humidity
53960;BME280;39866;48.638;-2.020;2023-11-21T00:00:35;101467.59;;;15.61;100.00
53960;BME280;39866;48.638;-2.020;2023-11-21T00:03:01;101459.13;;;15.25;100.00
53960;BME280;39866;48.638;-2.020;2023-11-21T00:05:27;101462.22;;;15.38;100.00
53960;BME280;39866;48.638;-2.020;2023-11-21T00:07:52;101468.59;;;15.35;100.00
53960;BME280;39866;48.638;-2.020;2023-11-21T00:10:17;101472.97;;;15.38;100.00
53960;BME280;39866;48.638;-2.020;2023-11-21T00:12:43;101463.16;;;15.36;100.00
53960;BME280;39866;48.638;-2.020;2023-11-21T00:15:08;101469.56;;;15.32;100.00
53960;BME280;39866;48.638;-2.020;2023-11-21T00:17:37;101467.75;;;15.33;100.00
53960;BME280;39866;48.638;-2.020;2023-11-21T00:20:03;101472.47;;;15.26;100.00
53960;BME280;39866;48.638;-2.020;2023-11-21T00:22:31;101477.63;;;15.32;100.00
53960;BME280;39866;48.638;-2.020;2023-11-21T00:24:57;101471.66;;;15.24;100.00
53960;BME280;39866;48.638;-2.020;2023-11-21T00:27:22;101487.31;;;15.36;100.00
53960;BME280;39866;48.638;-2.020;2023-11-21T00:29:47;101481.06;;;15.36;100.00
53960;BME280;39866;48.638;-2.020;2023-11-21T00:32:13;101482.88;;;15.35;100.00
53960;BME280;39866;48.638;-2.020;2023-11-21T00:34:38;101480.91;;;15.41;100.00
53960;BME280;39866;48.638;-2.020;2023-11-21T00:37:03;101474.63;;;15.17;100.00
53960;BME280;39866;48.638;-2.020;2023-11-21T00:39:29;101490.22;;;15.05;100.00
53960;BME280;39866;48.638;-2.020;2023-11-21T00:41:54;101501.28;;;15.21;100.00
53960;BME280;39866;48.638;-2.020;2023-11-21T00:44:19;101486.38;;;15.13;100.00
53960;BME280;39866;48.638;-2.020;2023-11-21T00:46:44;101491.47;;;14.95;100.00
53960;BME280;39866;48.638;-2.020;2023-11-21T00:49:10;101506.38;;;15.04;100.00
53960;BME280;39866;48.638;-2.020;2023-11-21T00:51:35;101514.31;;;15.07;100.00
53960;BME280;39866;48.638;-2.020;2023-11-21T00:54:01;101510.19;;;14.97;100.00
53960;BME280;39866;48.638;-2.020;2023-11-21T00:56:26;101520.28;;;14.89;100.00
53960;BME280;39866;48.638;-2.020;2023-11-21T00:58:51;101515.53;;;14.97;100.00
53960;BME280;39866;48.638;-2.020;2023-11-21T01:01:18;101533.19;;;15.04;100.00
53960;BME280;39866;48.638;-2.020;2023-11-21T01:03:43;101530.69;;;14.98;100.00
53960;BME280;39866;48.638;-2.020;2023-11-21T01:06:08;101512.53;;;15.06;100.00
53960;BME280;39866;48.638;-2.020;2023-11-21T01:08:34;101513.38;;;15.08;100.00
53960;BME280;39866;48.638;-2.020;2023-11-21T01:10:59;101508.88;;;15.08;100.00
53960;BME280;39866;48.638;-2.020;2023-11-21T01:13:24;101524.19;;;15.05;100.00
53960;BME280;39866;48.638;-2.020;2023-11-21T01:15:54;101507.03;;;15.10;100.00
53960;BME280;39866;48.638;-2.020;2023-11-21T01:18:19;101509.38;;;15.20;100.00
53960;BME280;39866;48.638;-2.020;2023-11-21T01:20:45;101496.44;;;15.06;100.00
53960;BME280;39866;48.638;-2.020;2023-11-21T01:23:12;101504.97;;;14.92;100.00
53960;BME280;39866;48.638;-2.020;2023-11-21T01:25:37;101495.75;;;15.01;100.00
53960;BME280;39866;48.638;-2.020;2023-11-21T01:28:02;101508.25;;;15.27;100.00
53960;BME280;39866;48.638;-2.020;2023-11-21T01:30:27;101511.63;;;15.07;100.00
53960;BME280;39866;48.638;-2.020;2023-11-21T01:32:52;101508.44;;;15.21;100.00
53960;BME280;39866;48.638;-2.020;2023-11-21T01:35:18;101509.38;;;15.20;100.00
53960;BME280;39866;48.638;-2.020;2023-11-21T01:37:43;101510.53;;;15.13;100.00
53960;BME280;39866;48.638;-2.020;2023-11-21T01:40:08;101513.91;;;15.18;100.00
53960;BME280;39866;48.638;-2.020;2023-11-21T01:42:34;101510.19;;;14.97;100.00
53960;BME280;39866;48.638;-2.020;2023-11-21T01:45:00;101529.38;;;15.11;100.00
53960;BME280;39866;48.638;-2.020;2023-11-21T01:47:29;101534.31;;;14.97;100.00
53960;BME280;39866;48.638;-2.020;2023-11-21T01:49:55;101518.75;;;15.08;100.00
53960;BME280;39866;48.638;-2.020;2023-11-21T01:52:20;101537.16;;;15.19;100.00
53960;BME280;39866;48.638;-2.020;2023-11-21T01:54:46;101531.72;;;14.94;100.00
53960;BME280;39866;48.638;-2.020;2023-11-21T01:57:11;101525.41;;;14.96;100.00
53960;BME280;39866;48.638;-2.020;2023-11-21T01:59:37;101506.88;;;15.15;100.00
53960;BME280;39866;48.638;-2.020;2023-11-21T02:02:03;101514.69;;;15.21;100.00
53960;BME280;39866;48.638;-2.020;2023-11-21T02:04:30;101531.78;;;15.19;100.00
53960;BME280;39866;48.638;-2.020;2023-11-21T02:06:55;101523.88;;;15.14;100.00
53960;BME280;39866;48.638;-2.020;2023-11-21T02:09:25;101529.53;;;15.06;100.00
53960;BME280;39866;48.638;-2.020;2023-11-21T02:11:50;101532.94;;;15.10;100.00
53960;BME280;39866;48.638;-2.020;2023-11-21T02:14:16;101533.53;;;15.20;100.00
53960;BME280;39866;48.638;-2.020;2023-11-21T02:16:43;101547.22;;;15.37;100.00
53960;BME280;39866;48.638;-2.020;2023-11-21T02:19:12;101541.19;;;15.30;100.00
53960;BME280;39866;48.638;-2.020;2023-11-21T02:21:40;101539.59;;;15.50;100.00
53960;BME280;39866;48.638;-2.020;2023-11-21T02:24:06;101535.72;;;15.33;100.00
53960;BME280;39866;48.638;-2.020;2023-11-21T02:26:32;101537.59;;;15.31;100.00
53960;BME280;39866;48.638;-2.020;2023-11-21T02:28:57;101544.63;;;15.34;100.00
53960;BME280;39866;48.638;-2.020;2023-11-21T02:31:23;101546.09;;;15.43;100.00
53960;BME280;39866;48.638;-2.020;2023-11-21T02:33:48;101543.81;;;15.32;100.00
53960;BME280;39866;48.638;-2.020;2023-11-21T02:36:13;101544.81;;;15.29;100.00
53960;BME280;39866;48.638;-2.020;2023-11-21T02:38:39;101545.31;;;15.41;100.00
53960;BME280;39866;48.638;-2.020;2023-11-21T02:41:04;101550.44;;;15.47;100.00
53960;BME280;39866;48.638;-2.020;2023-11-21T02:43:29;101547.31;;;15.34;100.00
53960;BME280;39866;48.638;-2.020;2023-11-21T02:45:54;101543.84;;;15.30;100.00
53960;BME280;39866;48.638;-2.020;2023-11-21T02:48:20;101544.69;;;15.32;100.00
53960;BME280;39866;48.638;-2.020;2023-11-21T02:50:45;101550.06;;;15.32;100.00
53960;BME280;39866;48.638;-2.020;2023-11-21T02:53:10;101551.31;;;15.22;100.00
53960;BME280;39866;48.638;-2.020;2023-11-21T02:55:36;101559.97;;;15.30;100.00
53960;BME280;39866;48.638;-2.020;2023-11-21T02:58:01;101565.66;;;15.46;100.00
53960;BME280;39866;48.638;-2.020;2023-11-21T03:00:26;101562.63;;;15.30;100.00
53960;BME280;39866;48.638;-2.020;2023-11-21T03:02:51;101555.19;;;15.14;100.00
53960;BME280;39866;48.638;-2.020;2023-11-21T03:05:17;101536.41;;;15.14;100.00
53960;BME280;39866;48.638;-2.020;2023-11-21T03:07:42;101542.78;;;15.11;100.00
53960;BME280;39866;48.638;-2.020;2023-11-21T03:10:07;101561.31;;;15.17;100.00
53960;BME280;39866;48.638;-2.020;2023-11-21T03:12:36;101557.84;;;15.15;100.00
53960;BME280;39866;48.638;-2.020;2023-11-21T03:15:01;101561.50;;;15.13;100.00
53960;BME280;39866;48.638;-2.020;2023-11-21T03:17:27;101565.56;;;15.24;100.00
53960;BME280;39866;48.638;-2.020;2023-11-21T03:19:52;101583.38;;;15.27;100.00
53960;BME280;39866;48.638;-2.020;2023-11-21T03:22:17;101563.63;;;15.03;100.00
53960;BME280;39866;48.638;-2.020;2023-11-21T03:24:42;101570.50;;;15.10;100.00
53960;BME280;39866;48.638;-2.020;2023-11-21T03:27:08;101573.25;;;15.08;100.00
53960;BME280;39866;48.638;-2.020;2023-11-21T03:29:33;101578.53;;;15.36;100.00
53960;BME280;39866;48.638;-2.020;2023-11-21T03:31:58;101573.84;;;15.43;100.00
53960;BME280;39866;48.638;-2.020;2023-11-21T03:34:24;101563.19;;;15.15;100.00
53960;BME280;39866;48.638;-2.020;2023-11-21T03:36:51;101573.50;;;15.27;100.00
53960;BME280;39866;48.638;-2.020;2023-11-21T03:39:16;101565.31;;;15.30;100.00
53960;BME280;39866;48.638;-2.020;2023-11-21T03:41:41;101575.75;;;15.40;100.00
53960;BME280;39866;48.638;-2.020;2023-11-21T03:44:06;101581.97;;;15.15;100.00
53960;BME280;39866;48.638;-2.020;2023-11-21T03:46:32;101567.03;;;15.33;100.00
53960;BME280;39866;48.638;-2.020;2023-11-21T03:48:57;101590.22;;;15.09;100.00
53960;BME280;39866;48.638;-2.020;2023-11-21T03:51:22;101595.91;;;15.00;100.00
53960;BME280;39866;48.638;-2.020;2023-11-21T03:53:47;101566.94;;;15.09;100.00
53960;BME280;39866;48.638;-2.020;2023-11-21T03:56:13;101566.66;;;15.44;100.00
53960;BME280;39866;48.638;-2.020;2023-11-21T03:58:38;101583.38;;;15.52;100.00
53960;BME280;39866;48.638;-2.020;2023-11-21T04:01:04;101570.31;;;15.16;100.00
53960;BME280;39866;48.638;-2.020;2023-11-21T04:03:29;101569.56;;;15.38;100.00
53960;BME280;39866;48.638;-2.020;2023-11-21T04:05:55;101567.25;;;15.52;100.00
53960;BME280;39866;48.638;-2.020;2023-11-21T04:08:20;101571.41;;;15.60;100.00
53960;BME280;39866;48.638;-2.020;2023-11-21T04:10:45;101573.84;;;15.43;100.00
53960;BME280;39866;48.638;-2.020;2023-11-21T04:13:10;101573.09;;;15.38;100.00
53960;BME280;39866;48.638;-2.020;2023-11-21T04:15:35;101580.22;;;15.66;100.00
53960;BME280;39866;48.638;-2.020;2023-11-21T04:18:01;101600.88;;;15.37;100.00
53960;BME280;39866;48.638;-2.020;2023-11-21T04:20:26;101593.66;;;15.39;100.00
53960;BME280;39866;48.638;-2.020;2023-11-21T04:22:52;101602.53;;;15.41;100.00
53960;BME280;39866;48.638;-2.020;2023-11-21T04:25:17;101598.47;;;15.54;100.00
53960;BME280;39866;48.638;-2.020;2023-11-21T04:27:43;101599.66;;;15.21;100.00
53960;BME280;39866;48.638;-2.020;2023-11-21T04:30:09;101606.09;;;15.42;100.00
53960;BME280;39866;48.638;-2.020;2023-11-21T04:32:35;101611.28;;;15.46;100.00
53960;BME280;39866;48.638;-2.020;2023-11-21T04:35:00;101603.28;;;15.45;100.00
53960;BME280;39866;48.638;-2.020;2023-11-21T04:37:25;101598.53;;;15.53;100.00
53960;BME280;39866;48.638;-2.020;2023-11-21T04:39:50;101605.53;;;15.57;100.00
53960;BME280;39866;48.638;-2.020;2023-11-21T04:42:16;101614.84;;;15.47;100.00
53960;BME280;39866;48.638;-2.020;2023-11-21T04:44:42;101608.69;;;15.70;100.00
53960;BME280;39866;48.638;-2.020;2023-11-21T04:47:08;101619.34;;;15.73;100.00
53960;BME280;39866;48.638;-2.020;2023-11-21T04:49:34;101624.88;;;15.42;100.00
53960;BME280;39866;48.638;-2.020;2023-11-21T04:51:59;101637.16;;;15.22;100.00
53960;BME280;39866;48.638;-2.020;2023-11-21T04:54:24;101634.09;;;15.33;100.00
53960;BME280;39866;48.638;-2.020;2023-11-21T04:56:49;101645.41;;;15.16;100.00
53960;BME280;39866;48.638;-2.020;2023-11-21T04:59:15;101650.63;;;15.21;100.00
53960;BME280;39866;48.638;-2.020;2023-11-21T05:01:40;101647.25;;;15.14;100.00
53960;BME280;39866;48.638;-2.020;2023-11-21T05:04:05;101649.00;;;14.89;100.00
53960;BME280;39866;48.638;-2.020;2023-11-21T05:06:31;101658.22;;;14.80;100.00
53960;BME280;39866;48.638;-2.020;2023-11-21T05:08:56;101673.13;;;14.89;100.00
53960;BME280;39866;48.638;-2.020;2023-11-21T05:11:25;101679.41;;;15.16;100.00
53960;BME280;39866;48.638;-2.020;2023-11-21T05:13:50;101679.78;;;15.31;100.00
53960;BME280;39866;48.638;-2.020;2023-11-21T05:16:15;101674.56;;;15.27;100.00
53960;BME280;39866;48.638;-2.020;2023-11-21T05:18:40;101679.56;;;15.38;100.00
53960;BME280;39866;48.638;-2.020;2023-11-21T05:21:05;101692.84;;;15.14;100.00
53960;BME280;39866;48.638;-2.020;2023-11-21T05:23:31;101692.75;;;14.91;100.00
53960;BME280;39866;48.638;-2.020;2023-11-21T05:25:56;101709.22;;;14.47;100.00
53960;BME280;39866;48.638;-2.020;2023-11-21T05:28:22;101701.84;;;14.55;100.00
53960;BME280;39866;48.638;-2.020;2023-11-21T05:30:47;101705.53;;;14.51;100.00
53960;BME280;39866;48.638;-2.020;2023-11-21T05:33:12;101704.34;;;14.91;100.00
53960;BME280;39866;48.638;-2.020;2023-11-21T05:35:37;101687.72;;;15.34;100.00
53960;BME280;39866;48.638;-2.020;2023-11-21T05:38:03;101692.94;;;15.39;100.00
53960;BME280;39866;48.638;-2.020;2023-11-21T05:40:28;101700.00;;;15.42;100.00
53960;BME280;39866;48.638;-2.020;2023-11-21T05:42:55;101703.31;;;15.23;100.00
53960;BME280;39866;48.638;-2.020;2023-11-21T05:45:21;101711.06;;;15.32;100.00
53960;BME280;39866;48.638;-2.020;2023-11-21T05:47:46;101705.75;;;14.73;100.00
53960;BME280;39866;48.638;-2.020;2023-11-21T05:50:12;101714.31;;;14.56;100.00
53960;BME280;39866;48.638;-2.020;2023-11-21T05:52:46;101693.91;;;14.52;100.00
53960;BME280;39866;48.638;-2.020;2023-11-21T05:55:12;101704.03;;;14.41;100.00
53960;BME280;39866;48.638;-2.020;2023-11-21T05:57:39;101711.00;;;14.47;100.00
53960;BME280;39866;48.638;-2.020;2023-11-21T06:00:05;101699.16;;;14.24;100.00
53960;BME280;39866;48.638;-2.020;2023-11-21T06:02:40;101721.06;;;14.38;100.00
53960;BME280;39866;48.638;-2.020;2023-11-21T06:05:06;101715.53;;;14.76;100.00
53960;BME280;39866;48.638;-2.020;2023-11-21T06:07:31;101713.75;;;15.04;100.00
53960;BME280;39866;48.638;-2.020;2023-11-21T06:09:57;101704.59;;;15.11;100.00
53960;BME280;39866;48.638;-2.020;2023-11-21T06:12:22;101712.00;;;15.30;100.00
53960;BME280;39866;48.638;-2.020;2023-11-21T06:14:47;101714.75;;;15.28;100.00
53960;BME280;39866;48.638;-2.020;2023-11-21T06:17:13;101718.63;;;15.20;100.00
53960;BME280;39866;48.638;-2.020;2023-11-21T06:19:38;101711.13;;;15.29;100.00
53960;BME280;39866;48.638;-2.020;2023-11-21T06:22:03;101710.47;;;15.23;100.00
53960;BME280;39866;48.638;-2.020;2023-11-21T06:24:29;101716.50;;;15.29;100.00
53960;BME280;39866;48.638;-2.020;2023-11-21T06:26:54;101716.72;;;15.23;100.00
53960;BME280;39866;48.638;-2.020;2023-11-21T06:29:19;101712.16;;;14.99;100.00
53960;BME280;39866;48.638;-2.020;2023-11-21T06:31:44;101726.94;;;14.82;100.00
53960;BME280;39866;48.638;-2.020;2023-11-21T06:34:11;101712.69;;;14.80;100.00
53960;BME280;39866;48.638;-2.020;2023-11-21T06:36:37;101713.72;;;14.76;100.00
53960;BME280;39866;48.638;-2.020;2023-11-21T06:39:02;101728.63;;;14.86;100.00
53960;BME280;39866;48.638;-2.020;2023-11-21T06:41:27;101741.75;;;14.66;100.00
53960;BME280;39866;48.638;-2.020;2023-11-21T06:43:53;101761.75;;;14.54;100.00
53960;BME280;39866;48.638;-2.020;2023-11-21T06:46:18;101748.59;;;14.44;100.00
53960;BME280;39866;48.638;-2.020;2023-11-21T06:48:44;101752.50;;;14.32;100.00
53960;BME280;39866;48.638;-2.020;2023-11-21T06:51:10;101748.94;;;14.31;100.00
53960;BME280;39866;48.638;-2.020;2023-11-21T06:53:36;101756.50;;;14.50;100.00
53960;BME280;39866;48.638;-2.020;2023-11-21T06:56:01;101757.63;;;14.41;100.00
53960;BME280;39866;48.638;-2.020;2023-11-21T06:58:26;101760.66;;;14.60;100.00
53960;BME280;39866;48.638;-2.020;2023-11-21T07:00:52;101753.41;;;14.64;100.00
53960;BME280;39866;48.638;-2.020;2023-11-21T07:03:17;101768.34;;;14.72;100.00
53960;BME280;39866;48.638;-2.020;2023-11-21T07:05:44;101762.34;;;14.94;100.00
53960;BME280;39866;48.638;-2.020;2023-11-21T07:08:09;101771.88;;;14.74;100.00
53960;BME280;39866;48.638;-2.020;2023-11-21T07:10:35;101767.84;;;14.89;100.00
53960;BME280;39866;48.638;-2.020;2023-11-21T07:13:01;101776.81;;;14.88;100.00
53960;BME280;39866;48.638;-2.020;2023-11-21T07:15:27;101774.25;;;15.13;100.00
53960;BME280;39866;48.638;-2.020;2023-11-21T07:17:53;101783.56;;;15.01;100.00
53960;BME280;39866;48.638;-2.020;2023-11-21T07:20:19;101780.78;;;15.04;100.00
53960;BME280;39866;48.638;-2.020;2023-11-21T07:22:44;101774.28;;;14.83;100.00
53960;BME280;39866;48.638;-2.020;2023-11-21T07:25:10;101783.63;;;14.70;100.00
53960;BME280;39866;48.638;-2.020;2023-11-21T07:27:35;101785.28;;;14.74;100.00
53960;BME280;39866;48.638;-2.020;2023-11-21T07:30:01;101778.91;;;14.78;100.00
53960;BME280;39866;48.638;-2.020;2023-11-21T07:32:29;101790.59;;;14.76;100.00
53960;BME280;39866;48.638;-2.020;2023-11-21T07:34:54;101795.72;;;14.83;100.00
53960;BME280;39866;48.638;-2.020;2023-11-21T07:37:22;101794.13;;;14.78;100.00
53960;BME280;39866;48.638;-2.020;2023-11-21T07:39:47;101795.94;;;14.76;100.00
53960;BME280;39866;48.638;-2.020;2023-11-21T07:42:12;101802.25;;;14.75;100.00
53960;BME280;39866;48.638;-2.020;2023-11-21T07:44:38;101804.50;;;14.89;100.00
53960;BME280;39866;48.638;-2.020;2023-11-21T07:47:03;101811.59;;;14.91;100.00
53960;BME280;39866;48.638;-2.020;2023-11-21T07:49:29;101820.38;;;14.96;100.00
53960;BME280;39866;48.638;-2.020;2023-11-21T07:51:55;101826.00;;;14.87;100.00
53960;BME280;39866;48.638;-2.020;2023-11-21T07:54:20;101824.50;;;14.77;100.00
53960;BME280;39866;48.638;-2.020;2023-11-21T07:56:46;101836.53;;;14.95;100.00
53960;BME280;39866;48.638;-2.020;2023-11-21T07:59:11;101829.06;;;14.73;100.00
53960;BME280;39866;48.638;-2.020;2023-11-21T08:01:37;101834.44;;;14.73;100.00
53960;BME280;39866;48.638;-2.020;2023-11-21T08:04:02;101836.22;;;14.74;100.00
53960;BME280;39866;48.638;-2.020;2023-11-21T08:06:29;101841.75;;;14.98;100.00
53960;BME280;39866;48.638;-2.020;2023-11-21T08:08:54;101833.19;;;15.16;100.00
53960;BME280;39866;48.638;-2.020;2023-11-21T08:11:19;101842.03;;;15.20;100.00
53960;BME280;39866;48.638;-2.020;2023-11-21T08:13:46;101852.91;;;15.15;100.00
53960;BME280;39866;48.638;-2.020;2023-11-21T08:16:11;101843.78;;;15.21;100.00
53960;BME280;39866;48.638;-2.020;2023-11-21T08:18:37;101843.91;;;15.16;100.00
53960;BME280;39866;48.638;-2.020;2023-11-21T08:21:02;101859.41;;;15.06;100.00
53960;BME280;39866;48.638;-2.020;2023-11-21T08:23:28;101858.28;;;14.84;100.00
53960;BME280;39866;48.638;-2.020;2023-11-21T08:25:54;101857.75;;;14.71;100.00
53960;BME280;39866;48.638;-2.020;2023-11-21T08:28:20;101863.41;;;14.92;100.00
53960;BME280;39866;48.638;-2.020;2023-11-21T08:30:51;101866.09;;;14.92;100.00
53960;BME280;39866;48.638;-2.020;2023-11-21T08:33:16;101878.00;;;15.13;100.00
53960;BME280;39866;48.638;-2.020;2023-11-21T08:35:41;101880.91;;;15.05;100.00
53960;BME280;39866;48.638;-2.020;2023-11-21T08:38:06;101887.78;;;15.15;100.00
53960;BME280;39866;48.638;-2.020;2023-11-21T08:40:32;101876.19;;;15.13;100.00
53960;BME280;39866;48.638;-2.020;2023-11-21T08:42:57;101885.59;;;14.97;100.00
53960;BME280;39866;48.638;-2.020;2023-11-21T08:45:23;101892.94;;;15.21;100.00
53960;BME280;39866;48.638;-2.020;2023-11-21T08:47:50;101892.50;;;15.05;100.00
53960;BME280;39866;48.638;-2.020;2023-11-21T08:50:16;101897.72;;;15.10;100.00
53960;BME280;39866;48.638;-2.020;2023-11-21T08:52:41;101910.97;;;15.16;100.00
53960;BME280;39866;48.638;-2.020;2023-11-21T08:55:07;101912.94;;;15.11;100.00
53960;BME280;39866;48.638;-2.020;2023-11-21T08:57:36;101913.16;;;15.03;100.00
53960;BME280;39866;48.638;-2.020;2023-11-21T09:00:05;101919.47;;;15.01;100.00
53960;BME280;39866;48.638;-2.020;2023-11-21T09:02:35;101926.03;;;14.91;100.00
53960;BME280;39866;48.638;-2.020;2023-11-21T09:05:01;101933.59;;;15.06;100.00
53960;BME280;39866;48.638;-2.020;2023-11-21T09:07:28;101921.94;;;15.08;100.00
53960;BME280;39866;48.638;-2.020;2023-11-21T09:09:53;101930.56;;;15.18;100.00
53960;BME280;39866;48.638;-2.020;2023-11-21T09:12:19;101926.16;;;15.17;100.00
53960;BME280;39866;48.638;-2.020;2023-11-21T09:14:45;101932.66;;;15.08;100.00
53960;BME280;39866;48.638;-2.020;2023-11-21T09:17:10;101935.41;;;15.05;100.00
53960;BME280;39866;48.638;-2.020;2023-11-21T09:19:39;101937.22;;;15.05;100.00
53960;BME280;39866;48.638;-2.020;2023-11-21T09:22:05;101956.19;;;14.99;100.00
53960;BME280;39866;48.638;-2.020;2023-11-21T09:24:31;101956.88;;;15.05;100.00
53960;BME280;39866;48.638;-2.020;2023-11-21T09:26:56;101956.75;;;14.77;100.00
53960;BME280;39866;48.638;-2.020;2023-11-21T09:29:21;101949.16;;;14.93;100.00
53960;BME280;39866;48.638;-2.020;2023-11-21T09:31:47;101956.44;;;15.21;100.00
53960;BME280;39866;48.638;-2.020;2023-11-21T09:34:12;101961.75;;;15.22;100.00
53960;BME280;39866;48.638;-2.020;2023-11-21T09:36:38;101969.59;;;15.30;100.00
53960;BME280;39866;48.638;-2.020;2023-11-21T09:39:04;101973.72;;;15.42;100.00
53960;BME280;39866;48.638;-2.020;2023-11-21T09:42:07;101969.78;;;15.24;100.00
53960;BME280;39866;48.638;-2.020;2023-11-21T09:44:39;101982.06;;;15.32;100.00
53960;BME280;39866;48.638;-2.020;2023-11-21T09:47:09;101978.72;;;15.24;100.00
53960;BME280;39866;48.638;-2.020;2023-11-21T09:49:35;101995.16;;;15.12;100.00
53960;BME280;39866;48.638;-2.020;2023-11-21T09:52:02;101990.03;;;15.35;100.00
53960;BME280;39866;48.638;-2.020;2023-11-21T09:54:30;101993.06;;;15.22;100.00
53960;BME280;39866;48.638;-2.020;2023-11-21T09:56:57;102007.00;;;15.36;100.00
53960;BME280;39866;48.638;-2.020;2023-11-21T09:59:23;102002.50;;;15.36;100.00
53960;BME280;39866;48.638;-2.020;2023-11-21T10:01:48;102004.09;;;15.44;100.00
53960;BME280;39866;48.638;-2.020;2023-11-21T10:04:15;102002.56;;;15.35;100.00
53960;BME280;39866;48.638;-2.020;2023-11-21T10:06:41;102013.41;;;15.30;100.00
53960;BME280;39866;48.638;-2.020;2023-11-21T10:09:09;102016.31;;;15.23;100.00
53960;BME280;39866;48.638;-2.020;2023-11-21T10:11:38;102032.41;;;15.23;100.00
53960;BME280;39866;48.638;-2.020;2023-11-21T10:14:06;102029.16;;;15.43;100.00
53960;BME280;39866;48.638;-2.020;2023-11-21T10:16:32;102025.94;;;15.30;100.00
53960;BME280;39866;48.638;-2.020;2023-11-21T10:18:57;102036.53;;;15.36;100.00
53960;BME280;39866;48.638;-2.020;2023-11-21T10:21:23;102042.25;;;15.22;100.00
53960;BME280;39866;48.638;-2.020;2023-11-21T10:23:48;102049.09;;;15.67;100.00
53960;BME280;39866;48.638;-2.020;2023-11-21T10:26:15;102052.53;;;15.39;100.00
53960;BME280;39866;48.638;-2.020;2023-11-21T10:28:42;102075.50;;;15.49;100.00
53960;BME280;39866;48.638;-2.020;2023-11-21T10:31:19;102057.41;;;15.25;100.00
53960;BME280;39866;48.638;-2.020;2023-11-21T10:33:44;102060.28;;;15.50;100.00
53960;BME280;39866;48.638;-2.020;2023-11-21T10:36:09;102056.63;;;15.52;100.00
53960;BME280;39866;48.638;-2.020;2023-11-21T10:38:41;102062.69;;;15.59;100.00
53960;BME280;39866;48.638;-2.020;2023-11-21T10:41:09;102063.63;;;15.25;100.00
53960;BME280;39866;48.638;-2.020;2023-11-21T10:43:35;102063.47;;;15.64;100.00
53960;BME280;39866;48.638;-2.020;2023-11-21T10:46:00;102058.13;;;15.63;100.00
53960;BME280;39866;48.638;-2.020;2023-11-21T10:48:25;102053.22;;;15.46;100.00
53960;BME280;39866;48.638;-2.020;2023-11-21T10:50:50;102059.53;;;15.45;100.00
53960;BME280;39866;48.638;-2.020;2023-11-21T10:53:15;102059.44;;;15.48;100.00
53960;BME280;39866;48.638;-2.020;2023-11-21T10:55:41;102059.69;;;15.71;100.00
53960;BME280;39866;48.638;-2.020;2023-11-21T10:58:06;102065.28;;;15.62;100.00
53960;BME280;39866;48.638;-2.020;2023-11-21T11:00:32;102061.63;;;15.66;100.00
53960;BME280;39866;48.638;-2.020;2023-11-21T11:02:58;102066.22;;;15.61;100.00
53960;BME280;39866;48.638;-2.020;2023-11-21T11:05:25;102061.59;;;15.68;100.00
53960;BME280;39866;48.638;-2.020;2023-11-21T11:07:52;102059.19;;;15.57;100.00
53960;BME280;39866;48.638;-2.020;2023-11-21T11:10:19;102066.16;;;15.63;100.00
53960;BME280;39866;48.638;-2.020;2023-11-21T11:12:47;102061.00;;;15.55;100.00
53960;BME280;39866;48.638;-2.020;2023-11-21T11:15:13;102074.75;;;15.10;100.00
53960;BME280;39866;48.638;-2.020;2023-11-21T11:17:39;102056.50;;;14.92;100.00
53960;BME280;39866;48.638;-2.020;2023-11-21T11:20:05;102051.81;;;15.00;100.00
53960;BME280;39866;48.638;-2.020;2023-11-21T11:22:41;102065.66;;;14.81;100.00
53960;BME280;39866;48.638;-2.020;2023-11-21T11:27:48;102067.88;;;14.66;100.00
53960;BME280;39866;48.638;-2.020;2023-11-21T11:36:02;102075.38;;;14.48;100.00
53960;BME280;39866;48.638;-2.020;2023-11-21T11:38:32;102058.44;;;14.49;100.00
53960;BME280;39866;48.638;-2.020;2023-11-21T11:41:03;102084.84;;;14.65;100.00
53960;BME280;39866;48.638;-2.020;2023-11-21T11:43:29;102099.91;;;14.31;100.00
53960;BME280;39866;48.638;-2.020;2023-11-21T11:45:57;102090.91;;;14.74;100.00
53960;BME280;39866;48.638;-2.020;2023-11-21T11:48:28;102096.50;;;14.64;100.00
53960;BME280;39866;48.638;-2.020;2023-11-21T11:53:40;102089.81;;;14.81;100.00
53960;BME280;39866;48.638;-2.020;2023-11-21T11:56:25;102099.22;;;14.62;100.00
53960;BME280;39866;48.638;-2.020;2023-11-21T11:58:51;102114.41;;;14.63;100.00
53960;BME280;39866;48.638;-2.020;2023-11-21T12:01:17;102102.78;;;14.63;100.00
53960;BME280;39866;48.638;-2.020;2023-11-21T12:03:43;102101.31;;;14.86;100.00
53960;BME280;39866;48.638;-2.020;2023-11-21T12:06:09;102106.88;;;14.79;100.00
53960;BME280;39866;48.638;-2.020;2023-11-21T12:08:36;102110.72;;;14.67;100.00
53960;BME280;39866;48.638;-2.020;2023-11-21T12:11:02;102116.19;;;14.63;100.00
53960;BME280;39866;48.638;-2.020;2023-11-21T12:13:28;102112.84;;;14.90;100.00
53960;BME280;39866;48.638;-2.020;2023-11-21T12:15:53;102125.41;;;14.88;100.00
53960;BME280;39866;48.638;-2.020;2023-11-21T12:18:19;102115.06;;;15.08;100.00
53960;BME280;39866;48.638;-2.020;2023-11-21T12:20:45;102117.44;;;14.85;100.00
53960;BME280;39866;48.638;-2.020;2023-11-21T12:23:13;102122.66;;;14.90;100.00
53960;BME280;39866;48.638;-2.020;2023-11-21T12:25:42;102121.53;;;15.00;100.00
53960;BME280;39866;48.638;-2.020;2023-11-21T12:28:07;102119.78;;;14.99;100.00
53960;BME280;39866;48.638;-2.020;2023-11-21T12:30:33;102124.97;;;15.05;100.00
53960;BME280;39866;48.638;-2.020;2023-11-21T12:33:00;102116.25;;;14.97;100.00
53960;BME280;39866;48.638;-2.020;2023-11-21T12:35:26;102120.91;;;14.89;100.00